sensor_id;sensor_type;location;lat;lon;timestamp;pressure;altitude;pressure_sealevel;temperature;humidity
51259;BME280;37327;54.254;18.504;2023-03-21T00:01:42;100708.00;;;6.74;100.00
51259;BME280;37327;54.254;18.504;2023-03-21T00:04:59;100708.83;;;6.75;100.00
51259;BME280;37327;54.254;18.504;2023-03-21T00:08:20;100699.95;;;6.74;100.00
51259;BME280;37327;54.254;18.504;2023-03-21T00:11:38;100707.13;;;6.73;100.00
51259;BME280;37327;54.254;18.504;2023-03-21T00:14:56;100701.07;;;6.71;100.00
51259;BME280;37327;54.254;18.504;2023-03-21T00:18:21;100695.70;;;6.71;100.00
51259;BME280;37327;54.254;18.504;2023-03-21T00:21:40;100698.40;;;6.71;100.00
51259;BME280;37327;54.254;18.504;2023-03-21T00:24:59;100696.57;;;6.72;100.00
51259;BME280;37327;54.254;18.504;2023-03-21T00:28:16;100699.08;;;6.73;100.00
51259;BME280;37327;54.254;18.504;2023-03-21T00:31:34;100688.35;;;6.73;100.00
51259;BME280;37327;54.254;18.504;2023-03-21T00:34:52;100676.23;;;6.69;100.00
51259;BME280;37327;54.254;18.504;2023-03-21T00:38:09;100677.95;;;6.70;100.00
51259;BME280;37327;54.254;18.504;2023-03-21T00:41:27;100676.09;;;6.71;100.00
51259;BME280;37327;54.254;18.504;2023-03-21T00:44:44;100677.25;;;6.68;100.00
51259;BME280;37327;54.254;18.504;2023-03-21T00:48:03;100678.09;;;6.69;100.00
51259;BME280;37327;54.254;18.504;2023-03-21T00:51:21;100684.61;;;6.66;100.00
51259;BME280;37327;54.254;18.504;2023-03-21T00:54:42;100688.27;;;6.65;100.00
51259;BME280;37327;54.254;18.504;2023-03-21T00:57:59;100682.07;;;6.65;100.00
51259;BME280;37327;54.254;18.504;2023-03-21T01:01:17;100690.12;;;6.65;100.00
51259;BME280;37327;54.254;18.504;2023-03-21T01:04:34;100680.54;;;6.62;100.00
51259;BME280;37327;54.254;18.504;2023-03-21T01:07:52;100679.53;;;6.63;100.00
51259;BME280;37327;54.254;18.504;2023-03-21T01:11:12;100683.52;;;6.59;100.00
51259;BME280;37327;54.254;18.504;2023-03-21T01:14:31;100684.36;;;6.60;100.00
51259;BME280;37327;54.254;18.504;2023-03-21T01:17:49;100687.03;;;6.60;100.00
51259;BME280;37327;54.254;18.504;2023-03-21T01:21:12;100680.14;;;6.57;100.00
51259;BME280;37327;54.254;18.504;2023-03-21T01:24:30;100677.45;;;6.57;100.00
51259;BME280;37327;54.254;18.504;2023-03-21T01:27:47;100671.40;;;6.55;100.00
51259;BME280;37327;54.254;18.504;2023-03-21T01:31:05;100672.23;;;6.56;100.00
51259;BME280;37327;54.254;18.504;2023-03-21T01:34:22;100677.60;;;6.56;100.00
51259;BME280;37327;54.254;18.504;2023-03-21T01:37:39;100689.16;;;6.56;100.00
51259;BME280;37327;54.254;18.504;2023-03-21T01:40:59;100683.80;;;6.56;100.00
51259;BME280;37327;54.254;18.504;2023-03-21T01:44:20;100684.80;;;6.55;100.00
51259;BME280;37327;54.254;18.504;2023-03-21T01:47:37;100683.80;;;6.56;100.00
51259;BME280;37327;54.254;18.504;2023-03-21T01:50:56;100690.72;;;6.59;100.00
51259;BME280;37327;54.254;18.504;2023-03-21T01:54:19;100680.14;;;6.57;100.00
51259;BME280;37327;54.254;18.504;2023-03-21T01:57:47;100688.88;;;6.59;100.00
51259;BME280;37327;54.254;18.504;2023-03-21T02:01:05;100694.54;;;6.56;100.00
51259;BME280;37327;54.254;18.504;2023-03-21T02:04:24;100689.16;;;6.56;100.00
51259;BME280;37327;54.254;18.504;2023-03-21T02:07:46;100693.70;;;6.56;100.00
51259;BME280;37327;54.254;18.504;2023-03-21T02:11:06;100694.54;;;6.56;100.00
51259;BME280;37327;54.254;18.504;2023-03-21T02:14:25;100696.52;;;6.54;100.00
51259;BME280;37327;54.254;18.504;2023-03-21T02:17:53;100705.27;;;6.56;100.00
51259;BME280;37327;54.254;18.504;2023-03-21T02:24:54;100702.90;;;6.53;100.00
51259;BME280;37327;54.254;18.504;2023-03-21T02:39:37;100703.36;;;6.48;100.00
51259;BME280;37327;54.254;18.504;2023-03-21T02:45:46;100707.16;;;6.46;100.00
51259;BME280;37327;54.254;18.504;2023-03-21T02:49:15;100700.28;;;6.43;100.00
51259;BME280;37327;54.254;18.504;2023-03-21T02:52:34;100704.95;;;6.41;100.00
51259;BME280;37327;54.254;18.504;2023-03-21T02:55:53;100706.79;;;6.41;100.00
51259;BME280;37327;54.254;18.504;2023-03-21T02:59:14;100698.90;;;6.39;100.00
51259;BME280;37327;54.254;18.504;2023-03-21T03:02:32;100702.55;;;6.38;100.00
51259;BME280;37327;54.254;18.504;2023-03-21T03:05:52;100707.92;;;6.38;100.00
51259;BME280;37327;54.254;18.504;2023-03-21T03:23:27;100723.50;;;6.25;100.00
51259;BME280;37327;54.254;18.504;2023-03-21T03:30:14;100721.14;;;6.22;100.00
51259;BME280;37327;54.254;18.504;2023-03-21T03:33:35;100727.48;;;6.21;100.00
51259;BME280;37327;54.254;18.504;2023-03-21T03:36:56;100724.96;;;6.19;100.00
51259;BME280;37327;54.254;18.504;2023-03-21T03:40:23;100736.67;;;6.18;100.00
51259;BME280;37327;54.254;18.504;2023-03-21T03:43:48;100735.97;;;6.16;100.00
51259;BME280;37327;54.254;18.504;2023-03-21T03:47:24;100728.52;;;6.10;100.00
51259;BME280;37327;54.254;18.504;2023-03-21T03:51:27;100734.16;;;6.07;100.00
51259;BME280;37327;54.254;18.504;2023-03-21T03:54:12;100728.42;;;6.02;100.00
51259;BME280;37327;54.254;18.504;2023-03-21T03:57:33;100741.13;;;6.00;100.00
51259;BME280;37327;54.254;18.504;2023-03-21T04:00:53;100742.38;;;5.96;100.00
51259;BME280;37327;54.254;18.504;2023-03-21T04:04:11;100748.72;;;5.94;100.00
51259;BME280;37327;54.254;18.504;2023-03-21T04:07:33;100751.53;;;5.93;100.00
51259;BME280;37327;54.254;18.504;2023-03-21T04:10:50;100747.00;;;5.93;100.00
51259;BME280;37327;54.254;18.504;2023-03-21T04:14:07;100748.15;;;5.91;100.00
51259;BME280;37327;54.254;18.504;2023-03-21T04:17:25;100749.59;;;5.85;100.00
51259;BME280;37327;54.254;18.504;2023-03-21T04:20:42;100747.48;;;5.79;100.00
51259;BME280;37327;54.254;18.504;2023-03-21T04:24:01;100760.32;;;5.76;100.00
51259;BME280;37327;54.254;18.504;2023-03-21T04:27:18;100748.91;;;5.73;100.00
51259;BME280;37327;54.254;18.504;2023-03-21T04:30:36;100747.93;;;5.74;100.00
51259;BME280;37327;54.254;18.504;2023-03-21T04:33:53;100751.45;;;5.75;100.00
51259;BME280;37327;54.254;18.504;2023-03-21T04:37:12;100755.66;;;5.78;100.00
51259;BME280;37327;54.254;18.504;2023-03-21T04:40:31;100756.66;;;5.77;100.00
51259;BME280;37327;54.254;18.504;2023-03-21T04:43:48;100766.69;;;5.74;99.88
51259;BME280;37327;54.254;18.504;2023-03-21T04:47:07;100761.73;;;5.70;99.65
51259;BME280;37327;54.254;18.504;2023-03-21T04:50:25;100765.55;;;5.67;99.59
51259;BME280;37327;54.254;18.504;2023-03-21T04:53:42;100771.75;;;5.68;99.64
51259;BME280;37327;54.254;18.504;2023-03-21T04:57:04;100774.43;;;5.68;99.51
51259;BME280;37327;54.254;18.504;2023-03-21T05:00:23;100781.50;;;5.69;99.35
51259;BME280;37327;54.254;18.504;2023-03-21T05:03:42;100781.50;;;5.69;99.05
51259;BME280;37327;54.254;18.504;2023-03-21T05:07:00;100776.27;;;5.67;98.99
51259;BME280;37327;54.254;18.504;2023-03-21T05:10:17;100780.66;;;5.68;99.03
51259;BME280;37327;54.254;18.504;2023-03-21T05:13:35;100785.84;;;5.70;98.92
51259;BME280;37327;54.254;18.504;2023-03-21T05:16:52;100789.53;;;5.69;98.93
51259;BME280;37327;54.254;18.504;2023-03-21T05:20:12;100793.63;;;5.63;98.48
51259;BME280;37327;54.254;18.504;2023-03-21T05:23:33;100798.14;;;5.63;98.26
51259;BME280;37327;54.254;18.504;2023-03-21T05:26:54;100793.88;;;5.70;98.31
51259;BME280;37327;54.254;18.504;2023-03-21T05:30:17;100796.30;;;5.73;97.49
51259;BME280;37327;54.254;18.504;2023-03-21T05:33:35;100798.39;;;5.79;97.10
51259;BME280;37327;54.254;18.504;2023-03-21T05:36:52;100798.95;;;6.02;97.47
51259;BME280;37327;54.254;18.504;2023-03-21T05:40:10;100808.71;;;6.68;96.91
51259;BME280;37327;54.254;18.504;2023-03-21T05:43:28;100802.83;;;6.83;93.32
51259;BME280;37327;54.254;18.504;2023-03-21T05:46:45;100807.88;;;6.68;91.88
51259;BME280;37327;54.254;18.504;2023-03-21T05:50:03;100807.52;;;6.53;91.72
51259;BME280;37327;54.254;18.504;2023-03-21T05:53:20;100816.20;;;6.37;91.64
51259;BME280;37327;54.254;18.504;2023-03-21T05:56:38;100814.24;;;6.29;91.69
51259;BME280;37327;54.254;18.504;2023-03-21T05:59:55;100817.48;;;6.33;91.96
51259;BME280;37327;54.254;18.504;2023-03-21T06:03:13;100821.70;;;6.36;91.58
51259;BME280;37327;54.254;18.504;2023-03-21T06:06:30;100819.27;;;6.42;91.58
51259;BME280;37327;54.254;18.504;2023-03-21T06:09:47;100814.22;;;6.67;91.37
51259;BME280;37327;54.254;18.504;2023-03-21T06:13:04;100821.53;;;6.75;90.19
51259;BME280;37327;54.254;18.504;2023-03-21T06:16:22;100820.69;;;6.74;89.55
51259;BME280;37327;54.254;18.504;2023-03-21T06:19:39;100832.13;;;6.76;89.53
51259;BME280;37327;54.254;18.504;2023-03-21T06:22:56;100839.44;;;6.84;89.77
51259;BME280;37327;54.254;18.504;2023-03-21T06:26:14;100845.17;;;6.89;89.47
51259;BME280;37327;54.254;18.504;2023-03-21T06:29:32;100845.13;;;6.99;89.44
51259;BME280;37327;54.254;18.504;2023-03-21T06:32:49;100844.64;;;7.31;90.66
51259;BME280;37327;54.254;18.504;2023-03-21T06:36:07;100847.92;;;7.79;90.08
51259;BME280;37327;54.254;18.504;2023-03-21T06:39:24;100854.05;;;8.07;88.03
51259;BME280;37327;54.254;18.504;2023-03-21T06:42:42;100858.11;;;8.11;87.10
51259;BME280;37327;54.254;18.504;2023-03-21T06:45:59;100861.88;;;8.00;86.30
51259;BME280;37327;54.254;18.504;2023-03-21T06:49:18;100861.06;;;7.82;85.56
51259;BME280;37327;54.254;18.504;2023-03-21T06:52:36;100865.23;;;7.58;85.38
51259;BME280;37327;54.254;18.504;2023-03-21T06:55:53;100860.47;;;7.52;86.42
51259;BME280;37327;54.254;18.504;2023-03-21T06:59:11;100869.99;;;7.46;86.33
51259;BME280;37327;54.254;18.504;2023-03-21T07:02:28;100868.42;;;7.44;86.47
51259;BME280;37327;54.254;18.504;2023-03-21T07:05:47;100866.61;;;7.44;86.76
51259;BME280;37327;54.254;18.504;2023-03-21T07:09:05;100871.52;;;7.49;86.98
51259;BME280;37327;54.254;18.504;2023-03-21T07:12:23;100879.17;;;7.44;86.15
51259;BME280;37327;54.254;18.504;2023-03-21T07:15:41;100877.43;;;7.53;86.36
51259;BME280;37327;54.254;18.504;2023-03-21T07:18:58;100880.40;;;7.49;85.60
51259;BME280;37327;54.254;18.504;2023-03-21T07:22:15;100884.17;;;7.39;84.90
51259;BME280;37327;54.254;18.504;2023-03-21T07:25:33;100890.22;;;7.23;84.96
51259;BME280;37327;54.254;18.504;2023-03-21T07:28:51;100880.78;;;7.19;85.67
51259;BME280;37327;54.254;18.504;2023-03-21T07:32:09;100890.80;;;7.17;85.45
51259;BME280;37327;54.254;18.504;2023-03-21T07:35:26;100889.27;;;7.14;85.13
51259;BME280;37327;54.254;18.504;2023-03-21T07:38:44;100884.45;;;7.18;85.07
51259;BME280;37327;54.254;18.504;2023-03-21T07:42:02;100891.05;;;7.23;84.46
51259;BME280;37327;54.254;18.504;2023-03-21T07:45:19;100885.07;;;7.29;83.91
51259;BME280;37327;54.254;18.504;2023-03-21T07:48:41;100888.71;;;7.38;83.75
51259;BME280;37327;54.254;18.504;2023-03-21T07:51:58;100891.54;;;7.37;83.20
51259;BME280;37327;54.254;18.504;2023-03-21T07:55:17;100899.73;;;7.35;82.35
51259;BME280;37327;54.254;18.504;2023-03-21T07:58:34;100902.29;;;7.37;82.23
51259;BME280;37327;54.254;18.504;2023-03-21T08:01:52;100902.72;;;7.32;81.53
51259;BME280;37327;54.254;18.504;2023-03-21T08:05:09;100900.73;;;7.34;82.02
51259;BME280;37327;54.254;18.504;2023-03-21T08:08:27;100910.54;;;7.25;81.53
51259;BME280;37327;54.254;18.504;2023-03-21T08:11:44;100910.78;;;7.32;81.98
51259;BME280;37327;54.254;18.504;2023-03-21T08:15:02;100914.71;;;7.38;81.30
51259;BME280;37327;54.254;18.504;2023-03-21T08:18:20;100915.02;;;7.35;81.16
51259;BME280;37327;54.254;18.504;2023-03-21T08:21:37;100917.99;;;7.31;80.92
51259;BME280;37327;54.254;18.504;2023-03-21T08:24:55;100923.24;;;7.51;82.31
51259;BME280;37327;54.254;18.504;2023-03-21T08:28:12;100925.09;;;8.04;81.37
51259;BME280;37327;54.254;18.504;2023-03-21T08:31:29;100921.30;;;8.33;78.79
51259;BME280;37327;54.254;18.504;2023-03-21T08:34:47;100925.82;;;8.50;77.10
51259;BME280;37327;54.254;18.504;2023-03-21T08:38:04;100929.58;;;8.58;77.61
51259;BME280;37327;54.254;18.504;2023-03-21T08:41:22;100935.30;;;8.63;76.55
51259;BME280;37327;54.254;18.504;2023-03-21T08:44:41;100934.53;;;8.44;76.68
51259;BME280;37327;54.254;18.504;2023-03-21T08:47:58;100940.12;;;8.33;77.35
51259;BME280;37327;54.254;18.504;2023-03-21T08:51:16;100945.93;;;8.20;77.21
51259;BME280;37327;54.254;18.504;2023-03-21T08:54:34;100944.61;;;8.24;77.70
51259;BME280;37327;54.254;18.504;2023-03-21T08:57:51;100954.98;;;8.19;76.95
51259;BME280;37327;54.254;18.504;2023-03-21T09:01:09;100951.14;;;8.04;77.01
51259;BME280;37327;54.254;18.504;2023-03-21T09:04:30;100960.59;;;7.90;77.37
51259;BME280;37327;54.254;18.504;2023-03-21T09:07:48;100962.45;;;7.89;77.81
51259;BME280;37327;54.254;18.504;2023-03-21T09:11:06;100961.07;;;7.85;76.61
51259;BME280;37327;54.254;18.504;2023-03-21T09:14:23;100963.97;;;8.10;75.76
51259;BME280;37327;54.254;18.504;2023-03-21T09:17:41;100952.77;;;8.59;75.12
51259;BME280;37327;54.254;18.504;2023-03-21T09:21:08;100957.69;;;8.89;72.58
51259;BME280;37327;54.254;18.504;2023-03-21T09:24:30;100967.84;;;9.04;70.13
51259;BME280;37327;54.254;18.504;2023-03-21T09:27:48;100957.20;;;8.94;69.44
51259;BME280;37327;54.254;18.504;2023-03-21T09:31:07;100966.98;;;8.95;69.87
51259;BME280;37327;54.254;18.504;2023-03-21T09:34:27;100967.58;;;8.81;68.88
51259;BME280;37327;54.254;18.504;2023-03-21T09:37:48;100956.16;;;8.87;69.28
51259;BME280;37327;54.254;18.504;2023-03-21T09:48:08;100957.14;;;9.12;68.34
51259;BME280;37327;54.254;18.504;2023-03-21T09:51:36;100964.41;;;9.20;67.67
51259;BME280;37327;54.254;18.504;2023-03-21T09:54:55;100964.70;;;9.08;66.98
51259;BME280;37327;54.254;18.504;2023-03-21T10:01:45;100955.15;;;8.88;67.80
51259;BME280;37327;54.254;18.504;2023-03-21T10:05:13;100959.95;;;9.02;68.83
51259;BME280;37327;54.254;18.504;2023-03-21T10:08:37;100953.21;;;9.49;69.46
51259;BME280;37327;54.254;18.504;2023-03-21T10:12:07;100945.76;;;10.18;68.29
51259;BME280;37327;54.254;18.504;2023-03-21T10:15:30;100951.63;;;10.71;66.60
51259;BME280;37327;54.254;18.504;2023-03-21T10:18:47;100944.45;;;11.03;64.84
51259;BME280;37327;54.254;18.504;2023-03-21T10:22:08;100962.83;;;11.16;64.72
51259;BME280;37327;54.254;18.504;2023-03-21T10:25:38;100965.16;;;11.19;64.09
51259;BME280;37327;54.254;18.504;2023-03-21T10:28:53;100957.39;;;11.24;63.54
51259;BME280;37327;54.254;18.504;2023-03-21T10:32:14;100970.60;;;11.58;63.16
51259;BME280;37327;54.254;18.504;2023-03-21T10:35:34;100957.58;;;11.54;61.38
51259;BME280;37327;54.254;18.504;2023-03-21T10:39:03;100965.40;;;11.49;62.19
51259;BME280;37327;54.254;18.504;2023-03-21T10:42:25;100960.73;;;11.65;61.63
51259;BME280;37327;54.254;18.504;2023-03-21T10:45:47;100962.55;;;11.42;60.94
51259;BME280;37327;54.254;18.504;2023-03-21T10:49:06;100968.60;;;11.04;59.73
51259;BME280;37327;54.254;18.504;2023-03-21T10:52:27;100960.55;;;10.80;60.84
51259;BME280;37327;54.254;18.504;2023-03-21T10:55:47;100960.13;;;11.16;63.25
51259;BME280;37327;54.254;18.504;2023-03-21T10:59:06;100951.77;;;11.34;62.03
51259;BME280;37327;54.254;18.504;2023-03-21T11:02:30;100954.03;;;11.22;60.16
51259;BME280;37327;54.254;18.504;2023-03-21T11:05:53;100946.25;;;11.19;60.21
51259;BME280;37327;54.254;18.504;2023-03-21T11:09:17;100952.02;;;11.16;59.74
51259;BME280;37327;54.254;18.504;2023-03-21T11:12:39;100950.51;;;11.53;60.65
51259;BME280;37327;54.254;18.504;2023-03-21T11:19:34;100950.84;;;11.81;57.87
51259;BME280;37327;54.254;18.504;2023-03-21T11:22:54;100939.24;;;12.18;56.28
51259;BME280;37327;54.254;18.504;2023-03-21T11:26:18;100937.30;;;12.50;55.39
51259;BME280;37327;54.254;18.504;2023-03-21T11:29:46;100934.53;;;12.88;55.50
51259;BME280;37327;54.254;18.504;2023-03-21T11:33:05;100947.73;;;13.36;56.38
51259;BME280;37327;54.254;18.504;2023-03-21T11:36:34;100950.43;;;13.72;54.13
51259;BME280;37327;54.254;18.504;2023-03-21T11:39:59;100952.61;;;13.98;53.40
51259;BME280;37327;54.254;18.504;2023-03-21T11:43:27;100946.96;;;14.00;52.75
51259;BME280;37327;54.254;18.504;2023-03-21T11:46:44;100951.04;;;13.53;51.97
51259;BME280;37327;54.254;18.504;2023-03-21T11:50:12;100949.56;;;12.91;52.66
51259;BME280;37327;54.254;18.504;2023-03-21T11:53:38;100943.71;;;12.34;52.80
51259;BME280;37327;54.254;18.504;2023-03-21T12:07:37;100932.24;;;11.55;55.97
51259;BME280;37327;54.254;18.504;2023-03-21T12:24:56;100915.38;;;12.60;53.08
51259;BME280;37327;54.254;18.504;2023-03-21T12:28:25;100928.53;;;12.48;52.96
51259;BME280;37327;54.254;18.504;2023-03-21T12:31:54;100920.13;;;12.58;53.24
51259;BME280;37327;54.254;18.504;2023-03-21T12:35:25;100919.49;;;12.86;53.15
51259;BME280;37327;54.254;18.504;2023-03-21T12:38:58;100907.51;;;13.10;52.22
51259;BME280;37327;54.254;18.504;2023-03-21T12:45:45;100917.62;;;13.01;52.03
51259;BME280;37327;54.254;18.504;2023-03-21T12:52:37;100904.06;;;12.56;52.32
51259;BME280;37327;54.254;18.504;2023-03-21T12:56:01;100907.57;;;12.42;52.87
51259;BME280;37327;54.254;18.504;2023-03-21T13:02:58;100912.66;;;12.22;52.95
51259;BME280;37327;54.254;18.504;2023-03-21T13:06:18;100906.37;;;12.07;53.30
51259;BME280;37327;54.254;18.504;2023-03-21T13:09:40;100903.07;;;11.96;53.30
51259;BME280;37327;54.254;18.504;2023-03-21T13:13:10;100903.55;;;12.00;53.51
51259;BME280;37327;54.254;18.504;2023-03-21T13:23:35;100890.69;;;12.02;53.51
51259;BME280;37327;54.254;18.504;2023-03-21T13:27:00;100871.80;;;12.17;53.09
51259;BME280;37327;54.254;18.504;2023-03-21T13:30:22;100876.38;;;12.31;53.48
51259;BME280;37327;54.254;18.504;2023-03-21T13:33:45;100883.20;;;12.27;52.43
51259;BME280;37327;54.254;18.504;2023-03-21T13:37:04;100883.53;;;12.09;52.71
51259;BME280;37327;54.254;18.504;2023-03-21T13:40:27;100882.09;;;11.98;53.08
51259;BME280;37327;54.254;18.504;2023-03-21T13:44:18;100885.59;;;12.07;52.83
51259;BME280;37327;54.254;18.504;2023-03-21T13:47:27;100875.99;;;12.19;53.84
51259;BME280;37327;54.254;18.504;2023-03-21T13:50:50;100864.68;;;12.16;53.18
51259;BME280;37327;54.254;18.504;2023-03-21T13:57:37;100866.41;;;11.94;52.31
51259;BME280;37327;54.254;18.504;2023-03-21T14:04:29;100867.55;;;11.99;53.15
51259;BME280;37327;54.254;18.504;2023-03-21T14:07:57;100864.38;;;12.11;53.16
51259;BME280;37327;54.254;18.504;2023-03-21T14:11:18;100853.95;;;12.08;52.42
51259;BME280;37327;54.254;18.504;2023-03-21T14:14:42;100852.25;;;12.07;52.88
51259;BME280;37327;54.254;18.504;2023-03-21T14:18:02;100847.29;;;11.95;52.64
51259;BME280;37327;54.254;18.504;2023-03-21T14:21:22;100851.97;;;12.01;53.61
51259;BME280;37327;54.254;18.504;2023-03-21T14:26:49;100841.33;;;12.00;53.25
51259;BME280;37327;54.254;18.504;2023-03-21T14:30:11;100847.57;;;12.00;54.19
51259;BME280;37327;54.254;18.504;2023-03-21T14:33:41;100845.44;;;12.11;54.50
51259;BME280;37327;54.254;18.504;2023-03-21T14:37:06;100845.91;;;12.14;54.13
51259;BME280;37327;54.254;18.504;2023-03-21T14:40:28;100841.55;;;12.13;53.41
51259;BME280;37327;54.254;18.504;2023-03-21T14:47:20;100842.47;;;12.05;53.37
51259;BME280;37327;54.254;18.504;2023-03-21T14:54:04;100837.40;;;11.79;53.73
51259;BME280;37327;54.254;18.504;2023-03-21T14:57:29;100831.80;;;11.81;53.89
51259;BME280;37327;54.254;18.504;2023-03-21T15:00:50;100837.78;;;11.76;54.03
51259;BME280;37327;54.254;18.504;2023-03-21T15:04:12;100839.58;;;11.61;55.28
51259;BME280;37327;54.254;18.504;2023-03-21T15:07:33;100839.27;;;11.56;57.33
51259;BME280;37327;54.254;18.504;2023-03-21T15:11:00;100840.84;;;11.27;58.90
51259;BME280;37327;54.254;18.504;2023-03-21T15:14:23;100839.52;;;11.15;59.76
51259;BME280;37327;54.254;18.504;2023-03-21T15:17:42;100837.31;;;10.87;60.65
51259;BME280;37327;54.254;18.504;2023-03-21T15:21:03;100830.79;;;10.73;61.93
51259;BME280;37327;54.254;18.504;2023-03-21T15:24:31;100821.06;;;10.56;62.36
51259;BME280;37327;54.254;18.504;2023-03-21T15:27:50;100829.53;;;10.53;63.03
51259;BME280;37327;54.254;18.504;2023-03-21T15:34:35;100830.92;;;10.32;64.04
51259;BME280;37327;54.254;18.504;2023-03-21T15:37:57;100827.02;;;10.35;64.81
51259;BME280;37327;54.254;18.504;2023-03-21T15:41:28;100821.97;;;10.40;64.83
51259;BME280;37327;54.254;18.504;2023-03-21T15:44:47;100823.48;;;10.26;64.86
51259;BME280;37327;54.254;18.504;2023-03-21T15:48:12;100821.98;;;10.23;65.54
51259;BME280;37327;54.254;18.504;2023-03-21T15:51:31;100821.62;;;10.26;65.71
51259;BME280;37327;54.254;18.504;2023-03-21T15:54:50;100824.31;;;10.26;65.79
51259;BME280;37327;54.254;18.504;2023-03-21T15:58:23;100826.20;;;10.18;66.35
51259;BME280;37327;54.254;18.504;2023-03-21T16:01:45;100820.63;;;10.11;67.31
51259;BME280;37327;54.254;18.504;2023-03-21T16:08:35;100824.04;;;9.97;67.85
51259;BME280;37327;54.254;18.504;2023-03-21T16:11:56;100822.34;;;9.96;68.31
51259;BME280;37327;54.254;18.504;2023-03-21T16:15:14;100831.77;;;9.92;68.47
51259;BME280;37327;54.254;18.504;2023-03-21T16:18:32;100832.98;;;9.81;68.41
51259;BME280;37327;54.254;18.504;2023-03-21T16:21:50;100833.47;;;9.68;68.75
51259;BME280;37327;54.254;18.504;2023-03-21T16:25:09;100832.48;;;9.61;69.13
51259;BME280;37327;54.254;18.504;2023-03-21T16:28:27;100833.79;;;9.57;69.45
51259;BME280;37327;54.254;18.504;2023-03-21T16:31:46;100836.16;;;9.52;69.70
51259;BME280;37327;54.254;18.504;2023-03-21T16:35:05;100837.67;;;9.38;70.04
51259;BME280;37327;54.254;18.504;2023-03-21T16:38:23;100828.20;;;9.25;70.62
51259;BME280;37327;54.254;18.504;2023-03-21T16:41:41;100840.14;;;9.15;71.24
51259;BME280;37327;54.254;18.504;2023-03-21T16:44:58;100843.33;;;9.10;71.41
51259;BME280;37327;54.254;18.504;2023-03-21T16:48:16;100842.81;;;9.06;71.67
51259;BME280;37327;54.254;18.504;2023-03-21T16:51:35;100847.84;;;9.01;71.95
51259;BME280;37327;54.254;18.504;2023-03-21T16:54:52;100840.72;;;8.92;72.37
51259;BME280;37327;54.254;18.504;2023-03-21T16:58:11;100851.63;;;8.82;72.68
51259;BME280;37327;54.254;18.504;2023-03-21T17:01:30;100856.76;;;8.59;73.35
51259;BME280;37327;54.254;18.504;2023-03-21T17:04:48;100855.89;;;8.33;74.35
51259;BME280;37327;54.254;18.504;2023-03-21T17:08:05;100853.03;;;8.08;75.32
51259;BME280;37327;54.254;18.504;2023-03-21T17:11:25;100861.52;;;7.95;76.07
51259;BME280;37327;54.254;18.504;2023-03-21T17:14:51;100859.27;;;7.90;76.33
51259;BME280;37327;54.254;18.504;2023-03-21T17:18:09;100857.36;;;7.83;76.94
51259;BME280;37327;54.254;18.504;2023-03-21T17:21:28;100861.84;;;7.74;77.47
51259;BME280;37327;54.254;18.504;2023-03-21T17:24:46;100865.84;;;7.70;77.25
51259;BME280;37327;54.254;18.504;2023-03-21T17:28:04;100869.51;;;7.69;77.26
51259;BME280;37327;54.254;18.504;2023-03-21T17:31:23;100875.21;;;7.66;77.83
51259;BME280;37327;54.254;18.504;2023-03-21T17:34:40;100870.97;;;7.63;77.92
51259;BME280;37327;54.254;18.504;2023-03-21T17:37:58;100868.28;;;7.63;77.92
51259;BME280;37327;54.254;18.504;2023-03-21T17:41:17;100862.98;;;7.54;78.75
51259;BME280;37327;54.254;18.504;2023-03-21T17:44:35;100864.46;;;7.48;79.28
51259;BME280;37327;54.254;18.504;2023-03-21T17:47:53;100860.91;;;7.47;79.35
51259;BME280;37327;54.254;18.504;2023-03-21T17:51:11;100862.62;;;7.48;79.36
51259;BME280;37327;54.254;18.504;2023-03-21T17:54:31;100864.29;;;7.49;79.49
51259;BME280;37327;54.254;18.504;2023-03-21T17:57:49;100867.99;;;7.48;79.42
51259;BME280;37327;54.254;18.504;2023-03-21T18:01:06;100855.00;;;7.44;79.55
51259;BME280;37327;54.254;18.504;2023-03-21T18:04:23;100867.51;;;7.35;80.03
51259;BME280;37327;54.254;18.504;2023-03-21T18:07:43;100858.50;;;7.26;80.45
51259;BME280;37327;54.254;18.504;2023-03-21T18:11:01;100863.66;;;7.20;80.83
51259;BME280;37327;54.254;18.504;2023-03-21T18:14:18;100869.86;;;7.20;80.97
51259;BME280;37327;54.254;18.504;2023-03-21T18:17:37;100872.72;;;7.19;81.03
51259;BME280;37327;54.254;18.504;2023-03-21T18:20:54;100859.59;;;7.16;81.27
51259;BME280;37327;54.254;18.504;2023-03-21T18:24:12;100859.73;;;7.14;81.37
51259;BME280;37327;54.254;18.504;2023-03-21T18:27:31;100861.26;;;7.17;81.42
51259;BME280;37327;54.254;18.504;2023-03-21T18:30:50;100860.28;;;7.18;81.53
51259;BME280;37327;54.254;18.504;2023-03-21T18:34:08;100856.61;;;7.19;81.55
51259;BME280;37327;54.254;18.504;2023-03-21T18:37:26;100854.62;;;7.21;81.49
51259;BME280;37327;54.254;18.504;2023-03-21T18:40:47;100855.45;;;7.21;81.49
51259;BME280;37327;54.254;18.504;2023-03-21T18:44:04;100861.52;;;7.23;81.38
51259;BME280;37327;54.254;18.504;2023-03-21T18:47:22;100844.99;;;7.18;81.77
51259;BME280;37327;54.254;18.504;2023-03-21T18:50:39;100848.99;;;7.14;82.34
51259;BME280;37327;54.254;18.504;2023-03-21T18:53:57;100852.27;;;7.08;82.82
51259;BME280;37327;54.254;18.504;2023-03-21T18:57:17;100835.34;;;7.07;82.96
51259;BME280;37327;54.254;18.504;2023-03-21T19:00:36;100831.46;;;6.92;83.79
51259;BME280;37327;54.254;18.504;2023-03-21T19:03:53;100830.98;;;6.79;84.72
51259;BME280;37327;54.254;18.504;2023-03-21T19:07:16;100830.32;;;6.67;85.44
51259;BME280;37327;54.254;18.504;2023-03-21T19:10:33;100828.79;;;6.64;85.87
51259;BME280;37327;54.254;18.504;2023-03-21T19:13:54;100824.67;;;6.70;85.58